Terminal Aerodrome Forecast
Issued by NWS

Current Version | Previous Version | Text Only | Print | Product List | Glossary On
Versions: 1 2 3 4 5 6 7 8 9 10 11 12 13 14 15 16
023 FTUS41 KBTV 260521 TAFMPV TAF KMPV 260521Z 2606/2706 24006KT P6SM BKN050 FM261000 VRB03KT P6SM SCT050 FM261500 29008KT P6SM BKN040 FM270000 VRB03KT P6SM FEW040=

USA.gov is the U.S. government's official web portal to all federal, state and local government web resources and services.